KDOV/DOV METAR and TAF weather

Enter ICAO airport designator
Station Type Date Time Source
KDOV METAR 2020/01/22 11:56 UTC NOAA

KDOV 221156Z AUTO 31005KT 10SM CLR M07/M10 A3048 RMK AO2 SLP325 T10661101 11047 21074 52013 $


Station Type Date Time Source
KDOV Decoded METAR 2020/01/22 11:56 UTC NOAA

Dover Air Force Base, DE, United States (KDOV) 39-08N 075-28W
Jan 22, 2020 - 06:56 AM EST / 2020.01.22 1156 UTC
Wind: from the NW (310 degrees) at 6 MPH (5 KT):0
Visibility: 10 mile(s):0
Sky conditions: clear
Temperature: 20.1 F (-6.6 C)
Windchill: 12 F (-11 C):1
Dew Point: 13.8 F (-10.1 C)
Relative Humidity: 76%
Pressure (altimeter): 30.48 in. Hg (1032 hPa)
Pressure tendency: 0.04 inches (1.3 hPa) higher than three hours ago
ob: KDOV 221156Z AUTO 31005KT 10SM CLR M07/M10 A3048 RMK AO2 SLP325 T10661101 11047 21074 52013
cycle: 12

Station Type Date Time Source
KDOV TAF 2020/01/22 08:32 UTC NOAA

TAF KDOV 220814Z 2208/2314 34006KT 9999 SKC QNH3041INS TX05/2218Z TNM08/2210Z

Example: see airport list